sensor_id;sensor_type;location;lat;lon;timestamp;temperature;humidity
44647;DHT22;56315;-33.902;151.160;2023-04-03T00:01:20;24.90;99.90
44647;DHT22;56315;-33.902;151.160;2023-04-03T00:03:47;24.90;99.90
44647;DHT22;56315;-33.902;151.160;2023-04-03T00:06:14;25.00;99.90
44647;DHT22;56315;-33.902;151.160;2023-04-03T00:08:42;25.10;99.90
44647;DHT22;56315;-33.902;151.160;2023-04-03T00:11:10;25.00;99.90
44647;DHT22;56315;-33.902;151.160;2023-04-03T00:13:38;24.80;99.90
44647;DHT22;56315;-33.902;151.160;2023-04-03T00:16:06;24.60;99.90
44647;DHT22;56315;-33.902;151.160;2023-04-03T00:18:34;24.50;99.90
44647;DHT22;56315;-33.902;151.160;2023-04-03T00:21:02;24.50;99.90
44647;DHT22;56315;-33.902;151.160;2023-04-03T00:23:29;24.50;99.90
44647;DHT22;56315;-33.902;151.160;2023-04-03T00:25:57;24.70;99.90
44647;DHT22;56315;-33.902;151.160;2023-04-03T00:28:24;24.70;99.90
44647;DHT22;56315;-33.902;151.160;2023-04-03T00:30:52;24.80;99.90
44647;DHT22;56315;-33.902;151.160;2023-04-03T00:33:19;24.80;99.90
44647;DHT22;56315;-33.902;151.160;2023-04-03T00:35:51;24.60;99.90
44647;DHT22;56315;-33.902;151.160;2023-04-03T00:38:18;24.40;99.90
44647;DHT22;56315;-33.902;151.160;2023-04-03T00:40:48;24.40;99.90
44647;DHT22;56315;-33.902;151.160;2023-04-03T00:43:18;24.30;99.90
44647;DHT22;56315;-33.902;151.160;2023-04-03T00:45:50;24.30;99.90
44647;DHT22;56315;-33.902;151.160;2023-04-03T00:48:21;24.70;99.90
44647;DHT22;56315;-33.902;151.160;2023-04-03T00:50:50;25.30;99.90
44647;DHT22;56315;-33.902;151.160;2023-04-03T00:53:24;26.10;99.90
44647;DHT22;56315;-33.902;151.160;2023-04-03T00:55:54;26.50;99.90
44647;DHT22;56315;-33.902;151.160;2023-04-03T00:58:33;26.60;99.90
44647;DHT22;56315;-33.902;151.160;2023-04-03T01:01:05;26.60;99.90
44647;DHT22;56315;-33.902;151.160;2023-04-03T01:03:33;27.30;99.90
44647;DHT22;56315;-33.902;151.160;2023-04-03T01:06:01;28.10;99.90
44647;DHT22;56315;-33.902;151.160;2023-04-03T01:08:28;28.60;99.90
44647;DHT22;56315;-33.902;151.160;2023-04-03T01:10:56;29.10;99.90
44647;DHT22;56315;-33.902;151.160;2023-04-03T01:13:28;29.80;99.90
44647;DHT22;56315;-33.902;151.160;2023-04-03T01:15:55;30.60;99.90
44647;DHT22;56315;-33.902;151.160;2023-04-03T01:18:25;31.20;99.90
44647;DHT22;56315;-33.902;151.160;2023-04-03T01:26:28;32.50;99.90
44647;DHT22;56315;-33.902;151.160;2023-04-03T01:28:58;32.50;99.90
44647;DHT22;56315;-33.902;151.160;2023-04-03T01:31:28;32.20;99.90
44647;DHT22;56315;-33.902;151.160;2023-04-03T01:33:57;32.20;99.90
44647;DHT22;56315;-33.902;151.160;2023-04-03T01:36:27;32.10;99.90
44647;DHT22;56315;-33.902;151.160;2023-04-03T01:38:56;32.30;99.90
44647;DHT22;56315;-33.902;151.160;2023-04-03T01:41:24;32.60;99.90
44647;DHT22;56315;-33.902;151.160;2023-04-03T01:43:52;32.60;99.90
44647;DHT22;56315;-33.902;151.160;2023-04-03T01:46:20;32.30;99.90
44647;DHT22;56315;-33.902;151.160;2023-04-03T01:48:48;32.20;99.90
44647;DHT22;56315;-33.902;151.160;2023-04-03T01:51:15;32.10;99.90
44647;DHT22;56315;-33.902;151.160;2023-04-03T01:53:42;31.40;99.90
44647;DHT22;56315;-33.902;151.160;2023-04-03T01:56:10;30.60;99.90
44647;DHT22;56315;-33.902;151.160;2023-04-03T01:58:38;30.00;99.90
44647;DHT22;56315;-33.902;151.160;2023-04-03T02:01:05;29.60;99.90
44647;DHT22;56315;-33.902;151.160;2023-04-03T02:03:33;29.10;99.90
44647;DHT22;56315;-33.902;151.160;2023-04-03T02:06:01;29.10;99.90
44647;DHT22;56315;-33.902;151.160;2023-04-03T02:08:28;29.20;99.90
44647;DHT22;56315;-33.902;151.160;2023-04-03T02:10:56;29.50;99.90
44647;DHT22;56315;-33.902;151.160;2023-04-03T02:13:23;30.20;99.90
44647;DHT22;56315;-33.902;151.160;2023-04-03T02:15:50;30.60;99.90
44647;DHT22;56315;-33.902;151.160;2023-04-03T02:18:18;30.90;99.90
44647;DHT22;56315;-33.902;151.160;2023-04-03T02:20:47;31.10;99.90
44647;DHT22;56315;-33.902;151.160;2023-04-03T02:23:14;30.80;99.90
44647;DHT22;56315;-33.902;151.160;2023-04-03T02:25:41;30.70;99.90
44647;DHT22;56315;-33.902;151.160;2023-04-03T02:28:08;30.70;99.90
44647;DHT22;56315;-33.902;151.160;2023-04-03T02:30:36;30.70;99.90
44647;DHT22;56315;-33.902;151.160;2023-04-03T02:33:03;30.60;99.90
44647;DHT22;56315;-33.902;151.160;2023-04-03T02:35:30;30.80;99.90
44647;DHT22;56315;-33.902;151.160;2023-04-03T02:37:57;31.00;99.90
44647;DHT22;56315;-33.902;151.160;2023-04-03T02:40:25;30.70;99.90
44647;DHT22;56315;-33.902;151.160;2023-04-03T02:42:52;30.70;99.90
44647;DHT22;56315;-33.902;151.160;2023-04-03T02:45:19;30.60;99.90
44647;DHT22;56315;-33.902;151.160;2023-04-03T02:47:46;30.40;99.90
44647;DHT22;56315;-33.902;151.160;2023-04-03T02:50:13;30.20;99.90
44647;DHT22;56315;-33.902;151.160;2023-04-03T02:52:41;30.20;99.90
44647;DHT22;56315;-33.902;151.160;2023-04-03T02:55:08;30.10;99.90
44647;DHT22;56315;-33.902;151.160;2023-04-03T02:57:36;30.10;99.90
44647;DHT22;56315;-33.902;151.160;2023-04-03T03:00:04;29.70;99.90
44647;DHT22;56315;-33.902;151.160;2023-04-03T03:02:31;29.40;99.90
44647;DHT22;56315;-33.902;151.160;2023-04-03T03:04:59;29.00;99.90
44647;DHT22;56315;-33.902;151.160;2023-04-03T03:07:26;28.80;99.90
44647;DHT22;56315;-33.902;151.160;2023-04-03T03:09:53;28.50;99.90
44647;DHT22;56315;-33.902;151.160;2023-04-03T03:12:21;28.30;99.90
44647;DHT22;56315;-33.902;151.160;2023-04-03T03:14:49;28.20;99.90
44647;DHT22;56315;-33.902;151.160;2023-04-03T03:17:17;28.10;99.90
44647;DHT22;56315;-33.902;151.160;2023-04-03T03:19:44;27.90;99.90
44647;DHT22;56315;-33.902;151.160;2023-04-03T03:22:12;27.80;99.90
44647;DHT22;56315;-33.902;151.160;2023-04-03T03:24:39;27.50;99.90
44647;DHT22;56315;-33.902;151.160;2023-04-03T03:27:07;27.20;99.90
44647;DHT22;56315;-33.902;151.160;2023-04-03T03:29:34;27.10;99.90
44647;DHT22;56315;-33.902;151.160;2023-04-03T03:32:01;26.80;99.90
44647;DHT22;56315;-33.902;151.160;2023-04-03T03:34:28;26.80;99.90
44647;DHT22;56315;-33.902;151.160;2023-04-03T03:36:56;26.70;99.90
44647;DHT22;56315;-33.902;151.160;2023-04-03T03:39:23;26.80;99.90
44647;DHT22;56315;-33.902;151.160;2023-04-03T03:41:50;26.80;99.90
44647;DHT22;56315;-33.902;151.160;2023-04-03T03:44:20;27.00;99.90
44647;DHT22;56315;-33.902;151.160;2023-04-03T03:46:47;26.90;99.90
44647;DHT22;56315;-33.902;151.160;2023-04-03T03:49:14;26.90;99.90
44647;DHT22;56315;-33.902;151.160;2023-04-03T03:51:42;26.80;99.90
44647;DHT22;56315;-33.902;151.160;2023-04-03T03:54:10;26.80;99.90
44647;DHT22;56315;-33.902;151.160;2023-04-03T03:56:37;26.60;99.90
44647;DHT22;56315;-33.902;151.160;2023-04-03T03:59:04;26.40;99.90
44647;DHT22;56315;-33.902;151.160;2023-04-03T04:01:32;26.40;99.90
44647;DHT22;56315;-33.902;151.160;2023-04-03T04:04:00;26.20;99.90
44647;DHT22;56315;-33.902;151.160;2023-04-03T04:06:27;26.00;99.90
44647;DHT22;56315;-33.902;151.160;2023-04-03T04:08:54;25.80;99.90
44647;DHT22;56315;-33.902;151.160;2023-04-03T04:11:22;25.60;99.90
44647;DHT22;56315;-33.902;151.160;2023-04-03T04:13:49;25.50;99.90
44647;DHT22;56315;-33.902;151.160;2023-04-03T04:16:16;25.40;99.90
44647;DHT22;56315;-33.902;151.160;2023-04-03T04:18:43;25.20;99.90
44647;DHT22;56315;-33.902;151.160;2023-04-03T04:21:11;25.10;99.90
44647;DHT22;56315;-33.902;151.160;2023-04-03T04:23:38;25.10;99.90
44647;DHT22;56315;-33.902;151.160;2023-04-03T04:26:05;25.10;99.90
44647;DHT22;56315;-33.902;151.160;2023-04-03T04:28:32;25.10;99.90
44647;DHT22;56315;-33.902;151.160;2023-04-03T04:31:00;25.10;99.90
44647;DHT22;56315;-33.902;151.160;2023-04-03T04:33:27;25.10;99.90
44647;DHT22;56315;-33.902;151.160;2023-04-03T04:35:54;25.10;99.90
44647;DHT22;56315;-33.902;151.160;2023-04-03T04:38:21;25.00;99.90
44647;DHT22;56315;-33.902;151.160;2023-04-03T04:40:49;25.10;99.90
44647;DHT22;56315;-33.902;151.160;2023-04-03T04:43:16;25.00;99.90
44647;DHT22;56315;-33.902;151.160;2023-04-03T04:45:44;24.90;99.90
44647;DHT22;56315;-33.902;151.160;2023-04-03T04:48:11;25.00;99.90
44647;DHT22;56315;-33.902;151.160;2023-04-03T04:50:38;25.10;99.90
44647;DHT22;56315;-33.902;151.160;2023-04-03T04:53:06;25.10;99.90
44647;DHT22;56315;-33.902;151.160;2023-04-03T04:55:33;25.10;99.90
44647;DHT22;56315;-33.902;151.160;2023-04-03T04:58:00;25.00;99.90
44647;DHT22;56315;-33.902;151.160;2023-04-03T05:00:28;25.00;99.90
44647;DHT22;56315;-33.902;151.160;2023-04-03T05:02:55;24.90;99.90
44647;DHT22;56315;-33.902;151.160;2023-04-03T05:05:22;24.90;99.90
44647;DHT22;56315;-33.902;151.160;2023-04-03T05:07:50;24.90;99.90
44647;DHT22;56315;-33.902;151.160;2023-04-03T05:10:17;24.90;99.90
44647;DHT22;56315;-33.902;151.160;2023-04-03T05:12:44;24.70;99.90
44647;DHT22;56315;-33.902;151.160;2023-04-03T05:15:11;24.40;99.90
44647;DHT22;56315;-33.902;151.160;2023-04-03T05:17:39;24.10;99.90
44647;DHT22;56315;-33.902;151.160;2023-04-03T05:20:06;24.00;99.90
44647;DHT22;56315;-33.902;151.160;2023-04-03T05:22:35;24.00;99.90
44647;DHT22;56315;-33.902;151.160;2023-04-03T05:25:02;24.00;99.90
44647;DHT22;56315;-33.902;151.160;2023-04-03T05:27:29;24.00;99.90
44647;DHT22;56315;-33.902;151.160;2023-04-03T05:29:57;24.00;99.90
44647;DHT22;56315;-33.902;151.160;2023-04-03T05:32:24;24.00;99.90
44647;DHT22;56315;-33.902;151.160;2023-04-03T05:34:54;24.10;99.90
44647;DHT22;56315;-33.902;151.160;2023-04-03T05:37:21;24.00;99.90
44647;DHT22;56315;-33.902;151.160;2023-04-03T05:39:48;24.00;99.90
44647;DHT22;56315;-33.902;151.160;2023-04-03T05:42:16;24.00;99.90
44647;DHT22;56315;-33.902;151.160;2023-04-03T05:44:43;24.00;99.90
44647;DHT22;56315;-33.902;151.160;2023-04-03T05:47:12;23.90;99.90
44647;DHT22;56315;-33.902;151.160;2023-04-03T05:49:39;23.90;99.90
44647;DHT22;56315;-33.902;151.160;2023-04-03T05:54:47;23.90;99.90
44647;DHT22;56315;-33.902;151.160;2023-04-03T05:57:15;23.90;99.90
44647;DHT22;56315;-33.902;151.160;2023-04-03T05:59:46;23.90;99.90
44647;DHT22;56315;-33.902;151.160;2023-04-03T06:02:16;24.00;99.90
44647;DHT22;56315;-33.902;151.160;2023-04-03T06:04:44;24.00;99.90
44647;DHT22;56315;-33.902;151.160;2023-04-03T06:07:14;24.10;99.90
44647;DHT22;56315;-33.902;151.160;2023-04-03T06:09:42;23.90;99.90
44647;DHT22;56315;-33.902;151.160;2023-04-03T06:12:09;23.70;99.90
44647;DHT22;56315;-33.902;151.160;2023-04-03T06:14:37;23.50;99.90
44647;DHT22;56315;-33.902;151.160;2023-04-03T06:17:05;23.40;99.90
44647;DHT22;56315;-33.902;151.160;2023-04-03T06:19:32;23.30;99.90
44647;DHT22;56315;-33.902;151.160;2023-04-03T06:22:00;23.20;99.90
44647;DHT22;56315;-33.902;151.160;2023-04-03T06:24:27;23.10;99.90
44647;DHT22;56315;-33.902;151.160;2023-04-03T06:26:55;23.10;99.90
44647;DHT22;56315;-33.902;151.160;2023-04-03T06:29:23;23.00;99.90
44647;DHT22;56315;-33.902;151.160;2023-04-03T06:31:51;22.90;99.90
44647;DHT22;56315;-33.902;151.160;2023-04-03T06:34:19;22.90;99.90
44647;DHT22;56315;-33.902;151.160;2023-04-03T06:36:46;22.90;99.90
44647;DHT22;56315;-33.902;151.160;2023-04-03T06:39:20;22.80;99.90
44647;DHT22;56315;-33.902;151.160;2023-04-03T06:41:49;22.80;99.90
44647;DHT22;56315;-33.902;151.160;2023-04-03T06:44:17;22.80;99.90
44647;DHT22;56315;-33.902;151.160;2023-04-03T06:46:45;22.80;99.90
44647;DHT22;56315;-33.902;151.160;2023-04-03T06:49:13;22.80;99.90
44647;DHT22;56315;-33.902;151.160;2023-04-03T06:51:41;22.70;99.90
44647;DHT22;56315;-33.902;151.160;2023-04-03T06:54:08;22.70;99.90
44647;DHT22;56315;-33.902;151.160;2023-04-03T06:56:36;22.70;99.90
44647;DHT22;56315;-33.902;151.160;2023-04-03T06:59:03;22.60;99.90
44647;DHT22;56315;-33.902;151.160;2023-04-03T07:01:31;22.60;99.90
44647;DHT22;56315;-33.902;151.160;2023-04-03T07:03:59;22.50;99.90
44647;DHT22;56315;-33.902;151.160;2023-04-03T07:06:26;22.50;99.90
44647;DHT22;56315;-33.902;151.160;2023-04-03T07:08:54;22.50;99.90
44647;DHT22;56315;-33.902;151.160;2023-04-03T07:11:22;22.50;99.90
44647;DHT22;56315;-33.902;151.160;2023-04-03T07:13:49;22.40;99.90
44647;DHT22;56315;-33.902;151.160;2023-04-03T07:16:17;22.30;99.90
44647;DHT22;56315;-33.902;151.160;2023-04-03T07:18:45;22.20;99.90
44647;DHT22;56315;-33.902;151.160;2023-04-03T07:21:13;22.20;99.90
44647;DHT22;56315;-33.902;151.160;2023-04-03T07:23:40;22.10;99.90
44647;DHT22;56315;-33.902;151.160;2023-04-03T07:26:08;22.10;99.90
44647;DHT22;56315;-33.902;151.160;2023-04-03T07:28:36;22.00;99.90
44647;DHT22;56315;-33.902;151.160;2023-04-03T07:31:05;22.00;99.90
44647;DHT22;56315;-33.902;151.160;2023-04-03T07:33:35;21.90;99.90
44647;DHT22;56315;-33.902;151.160;2023-04-03T07:36:04;21.90;99.90
44647;DHT22;56315;-33.902;151.160;2023-04-03T07:38:34;21.80;99.90
44647;DHT22;56315;-33.902;151.160;2023-04-03T07:41:02;21.70;99.90
44647;DHT22;56315;-33.902;151.160;2023-04-03T07:43:29;21.70;99.90
44647;DHT22;56315;-33.902;151.160;2023-04-03T07:45:57;21.60;99.90
44647;DHT22;56315;-33.902;151.160;2023-04-03T07:48:25;21.60;99.90
44647;DHT22;56315;-33.902;151.160;2023-04-03T07:50:53;21.50;99.90
44647;DHT22;56315;-33.902;151.160;2023-04-03T07:53:20;21.50;99.90
44647;DHT22;56315;-33.902;151.160;2023-04-03T07:55:48;21.50;99.90
44647;DHT22;56315;-33.902;151.160;2023-04-03T07:58:18;21.40;99.90
44647;DHT22;56315;-33.902;151.160;2023-04-03T08:00:46;21.40;99.90
44647;DHT22;56315;-33.902;151.160;2023-04-03T08:03:15;21.40;99.90
44647;DHT22;56315;-33.902;151.160;2023-04-03T08:05:46;21.40;99.90
44647;DHT22;56315;-33.902;151.160;2023-04-03T08:08:20;21.30;99.90
44647;DHT22;56315;-33.902;151.160;2023-04-03T08:10:54;21.30;99.90
44647;DHT22;56315;-33.902;151.160;2023-04-03T08:13:22;21.30;99.90
44647;DHT22;56315;-33.902;151.160;2023-04-03T08:15:49;21.30;99.90
44647;DHT22;56315;-33.902;151.160;2023-04-03T08:18:17;21.20;99.90
44647;DHT22;56315;-33.902;151.160;2023-04-03T08:20:47;21.20;99.90
44647;DHT22;56315;-33.902;151.160;2023-04-03T08:23:15;21.20;99.90
44647;DHT22;56315;-33.902;151.160;2023-04-03T08:25:43;21.20;99.90
44647;DHT22;56315;-33.902;151.160;2023-04-03T08:28:12;21.10;99.90
44647;DHT22;56315;-33.902;151.160;2023-04-03T08:30:40;21.10;99.90
44647;DHT22;56315;-33.902;151.160;2023-04-03T08:33:09;21.10;99.90
44647;DHT22;56315;-33.902;151.160;2023-04-03T08:35:40;21.10;99.90
44647;DHT22;56315;-33.902;151.160;2023-04-03T08:38:09;21.10;99.90
44647;DHT22;56315;-33.902;151.160;2023-04-03T08:40:37;21.20;99.90
44647;DHT22;56315;-33.902;151.160;2023-04-03T08:43:18;21.20;99.90
44647;DHT22;56315;-33.902;151.160;2023-04-03T08:45:58;21.20;99.90
44647;DHT22;56315;-33.902;151.160;2023-04-03T08:48:31;21.30;99.90
44647;DHT22;56315;-33.902;151.160;2023-04-03T08:51:04;21.30;99.90
44647;DHT22;56315;-33.902;151.160;2023-04-03T08:53:42;21.30;99.90
44647;DHT22;56315;-33.902;151.160;2023-04-03T08:56:13;21.40;99.90
44647;DHT22;56315;-33.902;151.160;2023-04-03T08:58:55;21.50;99.90
44647;DHT22;56315;-33.902;151.160;2023-04-03T09:01:41;21.50;99.90
44647;DHT22;56315;-33.902;151.160;2023-04-03T09:04:16;21.60;99.90
44647;DHT22;56315;-33.902;151.160;2023-04-03T09:06:52;21.60;99.90
44647;DHT22;56315;-33.902;151.160;2023-04-03T09:09:31;21.50;99.90
44647;DHT22;56315;-33.902;151.160;2023-04-03T09:12:04;21.50;99.90
44647;DHT22;56315;-33.902;151.160;2023-04-03T09:26:31;21.50;99.90
44647;DHT22;56315;-33.902;151.160;2023-04-03T09:29:06;21.50;99.90
44647;DHT22;56315;-33.902;151.160;2023-04-03T09:31:39;21.40;99.90
44647;DHT22;56315;-33.902;151.160;2023-04-03T09:34:17;21.40;99.90
44647;DHT22;56315;-33.902;151.160;2023-04-03T09:36:49;21.40;99.90
44647;DHT22;56315;-33.902;151.160;2023-04-03T09:39:23;21.30;99.90
44647;DHT22;56315;-33.902;151.160;2023-04-03T09:42:05;21.30;99.90
44647;DHT22;56315;-33.902;151.160;2023-04-03T09:44:36;21.30;99.90
44647;DHT22;56315;-33.902;151.160;2023-04-03T09:47:27;21.30;99.90
44647;DHT22;56315;-33.902;151.160;2023-04-03T09:50:20;21.30;99.90
44647;DHT22;56315;-33.902;151.160;2023-04-03T09:52:50;21.40;99.90
44647;DHT22;56315;-33.902;151.160;2023-04-03T09:55:29;21.40;99.90
44647;DHT22;56315;-33.902;151.160;2023-04-03T09:58:02;21.40;99.90
44647;DHT22;56315;-33.902;151.160;2023-04-03T10:00:40;21.40;99.90
44647;DHT22;56315;-33.902;151.160;2023-04-03T10:03:31;21.40;99.90
44647;DHT22;56315;-33.902;151.160;2023-04-03T10:05:59;21.40;99.90
44647;DHT22;56315;-33.902;151.160;2023-04-03T10:08:34;21.40;99.90
44647;DHT22;56315;-33.902;151.160;2023-04-03T10:11:11;21.40;99.90
44647;DHT22;56315;-33.902;151.160;2023-04-03T10:14:02;21.40;99.90
44647;DHT22;56315;-33.902;151.160;2023-04-03T10:16:42;21.40;99.90
44647;DHT22;56315;-33.902;151.160;2023-04-03T10:25:27;21.30;99.90
44647;DHT22;56315;-33.902;151.160;2023-04-03T10:28:25;21.30;99.90
44647;DHT22;56315;-33.902;151.160;2023-04-03T10:30:56;21.30;99.90
44647;DHT22;56315;-33.902;151.160;2023-04-03T10:34:06;21.30;99.90
44647;DHT22;56315;-33.902;151.160;2023-04-03T10:37:10;21.30;99.90
44647;DHT22;56315;-33.902;151.160;2023-04-03T10:39:45;21.30;99.90
44647;DHT22;56315;-33.902;151.160;2023-04-03T10:42:44;21.30;99.90
44647;DHT22;56315;-33.902;151.160;2023-04-03T10:45:28;21.20;99.90
44647;DHT22;56315;-33.902;151.160;2023-04-03T10:58:56;20.90;99.90
44647;DHT22;56315;-33.902;151.160;2023-04-03T11:01:33;20.90;99.90
44647;DHT22;56315;-33.902;151.160;2023-04-03T11:04:04;20.80;99.90
44647;DHT22;56315;-33.902;151.160;2023-04-03T11:06:51;20.80;99.90
44647;DHT22;56315;-33.902;151.160;2023-04-03T11:14:55;20.60;99.90
44647;DHT22;56315;-33.902;151.160;2023-04-03T11:17:53;20.60;99.90
44647;DHT22;56315;-33.902;151.160;2023-04-03T11:20:31;20.60;99.90
44647;DHT22;56315;-33.902;151.160;2023-04-03T11:25:50;20.50;99.90
44647;DHT22;56315;-33.902;151.160;2023-04-03T11:28:19;20.50;99.90
44647;DHT22;56315;-33.902;151.160;2023-04-03T11:36:31;20.40;99.90
44647;DHT22;56315;-33.902;151.160;2023-04-03T11:39:31;20.30;99.90
44647;DHT22;56315;-33.902;151.160;2023-04-03T11:42:37;20.30;99.90
44647;DHT22;56315;-33.902;151.160;2023-04-03T11:47:58;20.20;99.90
44647;DHT22;56315;-33.902;151.160;2023-04-03T11:50:43;20.10;99.90
44647;DHT22;56315;-33.902;151.160;2023-04-03T11:58:16;20.10;99.90
44647;DHT22;56315;-33.902;151.160;2023-04-03T12:00:55;20.00;99.90
44647;DHT22;56315;-33.902;151.160;2023-04-03T12:16:23;19.90;99.90
44647;DHT22;56315;-33.902;151.160;2023-04-03T12:19:01;19.80;99.90
44647;DHT22;56315;-33.902;151.160;2023-04-03T12:48:56;19.40;99.90
44647;DHT22;56315;-33.902;151.160;2023-04-03T12:54:02;19.30;99.90
44647;DHT22;56315;-33.902;151.160;2023-04-03T12:56:32;19.30;99.90
44647;DHT22;56315;-33.902;151.160;2023-04-03T12:59:23;19.30;99.90
44647;DHT22;56315;-33.902;151.160;2023-04-03T13:01:58;19.30;99.90
44647;DHT22;56315;-33.902;151.160;2023-04-03T13:04:29;19.30;99.90
44647;DHT22;56315;-33.902;151.160;2023-04-03T13:06:57;19.30;99.90
44647;DHT22;56315;-33.902;151.160;2023-04-03T13:09:27;19.30;99.90
44647;DHT22;56315;-33.902;151.160;2023-04-03T13:11:59;19.30;99.90
44647;DHT22;56315;-33.902;151.160;2023-04-03T13:14:29;19.30;99.90
44647;DHT22;56315;-33.902;151.160;2023-04-03T13:16:58;19.20;99.90
44647;DHT22;56315;-33.902;151.160;2023-04-03T13:19:27;19.20;99.90
44647;DHT22;56315;-33.902;151.160;2023-04-03T13:22:33;19.10;99.90
44647;DHT22;56315;-33.902;151.160;2023-04-03T13:25:13;19.00;99.90
44647;DHT22;56315;-33.902;151.160;2023-04-03T13:27:41;19.00;99.90
44647;DHT22;56315;-33.902;151.160;2023-04-03T13:30:32;18.90;99.90
44647;DHT22;56315;-33.902;151.160;2023-04-03T13:33:04;18.90;99.90
44647;DHT22;56315;-33.902;151.160;2023-04-03T13:35:38;18.90;99.90
44647;DHT22;56315;-33.902;151.160;2023-04-03T13:40:59;18.80;99.90
44647;DHT22;56315;-33.902;151.160;2023-04-03T13:43:36;18.70;99.90
44647;DHT22;56315;-33.902;151.160;2023-04-03T13:46:25;18.60;99.90
44647;DHT22;56315;-33.902;151.160;2023-04-03T13:48:56;18.60;99.90
44647;DHT22;56315;-33.902;151.160;2023-04-03T13:51:27;18.50;99.90
44647;DHT22;56315;-33.902;151.160;2023-04-03T13:54:10;18.50;99.90
44647;DHT22;56315;-33.902;151.160;2023-04-03T13:56:40;18.40;99.90
44647;DHT22;56315;-33.902;151.160;2023-04-03T14:01:57;18.30;99.90
44647;DHT22;56315;-33.902;151.160;2023-04-03T14:04:54;18.20;99.90
44647;DHT22;56315;-33.902;151.160;2023-04-03T14:07:25;18.20;99.90
44647;DHT22;56315;-33.902;151.160;2023-04-03T14:09:53;18.10;99.90
44647;DHT22;56315;-33.902;151.160;2023-04-03T14:12:34;18.00;99.90
44647;DHT22;56315;-33.902;151.160;2023-04-03T14:15:28;18.00;99.90
44647;DHT22;56315;-33.902;151.160;2023-04-03T14:17:57;17.90;99.90
44647;DHT22;56315;-33.902;151.160;2023-04-03T14:20:26;17.90;99.90
44647;DHT22;56315;-33.902;151.160;2023-04-03T14:22:54;17.90;99.90
44647;DHT22;56315;-33.902;151.160;2023-04-03T14:25:22;17.90;99.90
44647;DHT22;56315;-33.902;151.160;2023-04-03T14:27:52;17.80;99.90
44647;DHT22;56315;-33.902;151.160;2023-04-03T14:30:23;17.70;99.90
44647;DHT22;56315;-33.902;151.160;2023-04-03T14:32:51;17.70;99.90
44647;DHT22;56315;-33.902;151.160;2023-04-03T14:35:19;17.70;99.90
44647;DHT22;56315;-33.902;151.160;2023-04-03T14:37:47;17.60;99.90
44647;DHT22;56315;-33.902;151.160;2023-04-03T14:40:20;17.60;99.90
44647;DHT22;56315;-33.902;151.160;2023-04-03T14:42:49;17.60;99.90
44647;DHT22;56315;-33.902;151.160;2023-04-03T14:45:17;17.60;99.90
44647;DHT22;56315;-33.902;151.160;2023-04-03T14:47:55;17.60;99.90
44647;DHT22;56315;-33.902;151.160;2023-04-03T14:50:25;17.50;99.90
44647;DHT22;56315;-33.902;151.160;2023-04-03T14:52:55;17.50;99.90
44647;DHT22;56315;-33.902;151.160;2023-04-03T14:55:24;17.50;99.90
44647;DHT22;56315;-33.902;151.160;2023-04-03T14:57:52;17.50;99.90
44647;DHT22;56315;-33.902;151.160;2023-04-03T15:00:21;17.50;99.90
44647;DHT22;56315;-33.902;151.160;2023-04-03T15:02:49;17.50;99.90
44647;DHT22;56315;-33.902;151.160;2023-04-03T15:05:16;17.50;99.90
44647;DHT22;56315;-33.902;151.160;2023-04-03T15:07:52;17.40;99.90
44647;DHT22;56315;-33.902;151.160;2023-04-03T15:10:38;17.40;99.90
44647;DHT22;56315;-33.902;151.160;2023-04-03T15:13:05;17.30;99.90
44647;DHT22;56315;-33.902;151.160;2023-04-03T15:15:33;17.30;99.90
44647;DHT22;56315;-33.902;151.160;2023-04-03T15:18:01;17.30;99.90
44647;DHT22;56315;-33.902;151.160;2023-04-03T15:20:29;17.30;99.90
44647;DHT22;56315;-33.902;151.160;2023-04-03T15:22:57;17.20;99.90
44647;DHT22;56315;-33.902;151.160;2023-04-03T15:25:27;17.20;99.90
44647;DHT22;56315;-33.902;151.160;2023-04-03T15:27:55;17.20;99.90
44647;DHT22;56315;-33.902;151.160;2023-04-03T15:30:23;17.20;99.90
44647;DHT22;56315;-33.902;151.160;2023-04-03T15:32:50;17.20;99.90
44647;DHT22;56315;-33.902;151.160;2023-04-03T15:35:18;17.20;99.90
44647;DHT22;56315;-33.902;151.160;2023-04-03T15:37:45;17.20;99.90
44647;DHT22;56315;-33.902;151.160;2023-04-03T15:40:15;17.20;99.90
44647;DHT22;56315;-33.902;151.160;2023-04-03T15:42:42;17.20;99.90
44647;DHT22;56315;-33.902;151.160;2023-04-03T15:45:10;17.20;99.90
44647;DHT22;56315;-33.902;151.160;2023-04-03T15:47:37;17.10;99.90
44647;DHT22;56315;-33.902;151.160;2023-04-03T15:50:05;17.10;99.90
44647;DHT22;56315;-33.902;151.160;2023-04-03T15:52:34;17.10;99.90
44647;DHT22;56315;-33.902;151.160;2023-04-03T15:55:02;17.10;99.90
44647;DHT22;56315;-33.902;151.160;2023-04-03T15:57:29;17.10;99.90
44647;DHT22;56315;-33.902;151.160;2023-04-03T15:59:57;17.00;99.90
44647;DHT22;56315;-33.902;151.160;2023-04-03T16:02:24;17.00;99.90
44647;DHT22;56315;-33.902;151.160;2023-04-03T16:04:54;16.90;99.90
44647;DHT22;56315;-33.902;151.160;2023-04-03T16:07:22;16.90;99.90
44647;DHT22;56315;-33.902;151.160;2023-04-03T16:09:49;16.80;99.90
44647;DHT22;56315;-33.902;151.160;2023-04-03T16:12:16;16.80;99.90
44647;DHT22;56315;-33.902;151.160;2023-04-03T16:14:44;16.80;99.90
44647;DHT22;56315;-33.902;151.160;2023-04-03T16:17:11;16.80;99.90
44647;DHT22;56315;-33.902;151.160;2023-04-03T16:19:38;16.70;99.90
44647;DHT22;56315;-33.902;151.160;2023-04-03T16:22:06;16.70;99.90
44647;DHT22;56315;-33.902;151.160;2023-04-03T16:24:33;16.70;99.90
44647;DHT22;56315;-33.902;151.160;2023-04-03T16:27:01;16.70;99.90
44647;DHT22;56315;-33.902;151.160;2023-04-03T16:29:29;16.70;99.90
44647;DHT22;56315;-33.902;151.160;2023-04-03T16:31:57;16.60;99.90
44647;DHT22;56315;-33.902;151.160;2023-04-03T16:34:25;16.60;99.90
44647;DHT22;56315;-33.902;151.160;2023-04-03T16:36:53;16.70;99.90
44647;DHT22;56315;-33.902;151.160;2023-04-03T16:39:20;16.60;99.90
44647;DHT22;56315;-33.902;151.160;2023-04-03T16:41:48;16.60;99.90
44647;DHT22;56315;-33.902;151.160;2023-04-03T16:44:15;16.50;99.90
44647;DHT22;56315;-33.902;151.160;2023-04-03T16:46:42;16.50;99.90
44647;DHT22;56315;-33.902;151.160;2023-04-03T16:49:10;16.50;99.90
44647;DHT22;56315;-33.902;151.160;2023-04-03T16:51:37;16.50;99.90
44647;DHT22;56315;-33.902;151.160;2023-04-03T16:54:04;16.40;99.90
44647;DHT22;56315;-33.902;151.160;2023-04-03T16:56:32;16.40;99.90